createdAt,value
2017-10-28T00:00:33.944Z,2.80
2017-10-28T00:02:59.914Z,2.40
2017-10-28T00:05:25.920Z,2.28
2017-10-28T00:07:52.689Z,2.50
2017-10-28T00:10:18.653Z,3.00
2017-10-28T00:12:44.633Z,3.20
2017-10-28T00:15:10.592Z,3.67
2017-10-28T00:17:36.548Z,3.40
2017-10-28T00:20:03.289Z,3.50
2017-10-28T00:22:30.000Z,3.30
2017-10-28T00:24:56.017Z,3.42
2017-10-28T00:27:22.018Z,3.70
2017-10-28T00:29:48.009Z,3.67
2017-10-28T00:32:20.227Z,3.50
2017-10-28T00:34:52.261Z,3.20
2017-10-28T00:37:18.216Z,3.50
2017-10-28T00:39:45.387Z,3.40
2017-10-28T00:42:11.359Z,3.03
2017-10-28T00:44:37.326Z,2.97
2017-10-28T00:47:04.053Z,2.60
2017-10-28T00:49:30.757Z,3.10
2017-10-28T00:51:56.721Z,2.60
2017-10-28T00:54:23.429Z,2.75
2017-10-28T00:56:49.405Z,2.25
2017-10-28T00:59:15.370Z,2.90
2017-10-28T01:01:41.366Z,2.60
2017-10-28T01:04:07.318Z,2.50
2017-10-28T01:06:33.301Z,2.75
2017-10-28T01:09:00.221Z,2.90
2017-10-28T01:11:26.191Z,2.60
2017-10-28T01:13:52.156Z,2.60
2017-10-28T01:16:18.138Z,3.00
2017-10-28T01:18:44.114Z,2.90
2017-10-28T01:21:10.077Z,2.80
2017-10-28T01:23:36.064Z,2.80
2017-10-28T01:26:02.030Z,3.10
2017-10-28T01:28:28.770Z,4.00
2017-10-28T01:30:55.472Z,5.00
2017-10-28T01:33:21.457Z,5.87
2017-10-28T01:35:47.444Z,6.05
2017-10-28T01:38:13.410Z,6.03
2017-10-28T01:40:39.377Z,6.45
2017-10-28T01:43:05.374Z,6.25
2017-10-28T01:45:31.336Z,4.93
2017-10-28T01:47:58.041Z,4.37
2017-10-28T01:50:24.029Z,3.60
2017-10-28T01:52:50.073Z,3.80
2017-10-28T01:55:16.031Z,3.45
2017-10-28T01:57:42.917Z,3.50
2017-10-28T02:00:08.872Z,3.37
2017-10-28T02:02:34.845Z,2.80
2017-10-28T02:05:01.701Z,3.30
2017-10-28T02:07:27.661Z,2.80
2017-10-28T02:09:53.605Z,2.75
2017-10-28T02:12:19.600Z,2.60
2017-10-28T02:14:45.557Z,2.70
2017-10-28T02:17:11.525Z,3.08
2017-10-28T02:19:37.773Z,2.60
2017-10-28T02:22:04.464Z,2.80
2017-10-28T02:24:30.457Z,3.50
2017-10-28T02:26:56.417Z,3.10
2017-10-28T02:29:22.762Z,3.10
2017-10-28T02:31:48.728Z,2.75
2017-10-28T02:34:14.733Z,3.20
2017-10-28T02:36:41.573Z,3.53
2017-10-28T02:39:08.289Z,3.20
2017-10-28T02:41:34.989Z,3.08
2017-10-28T02:44:00.994Z,2.80
2017-10-28T02:46:26.956Z,3.15
2017-10-28T02:48:52.929Z,3.03
2017-10-28T02:51:18.893Z,4.83
2017-10-28T02:53:45.604Z,17.33
2017-10-28T02:56:11.553Z,6.18
2017-10-28T02:58:37.550Z,3.62
2017-10-28T03:01:03.514Z,3.10
2017-10-28T03:03:30.236Z,2.65
2017-10-28T03:05:56.277Z,2.83
2017-10-28T03:08:22.989Z,2.70
2017-10-28T03:10:48.974Z,3.10
2017-10-28T03:13:14.941Z,2.90
2017-10-28T03:15:40.922Z,2.53
2017-10-28T03:18:07.301Z,2.90
2017-10-28T03:20:34.024Z,3.40
2017-10-28T03:23:00.007Z,2.80
2017-10-28T03:25:25.993Z,3.40
2017-10-28T03:27:51.977Z,3.42
2017-10-28T03:30:17.938Z,3.00
2017-10-28T03:32:43.920Z,3.37
2017-10-28T03:35:09.878Z,3.00
2017-10-28T03:37:36.593Z,3.03
2017-10-28T03:40:02.587Z,3.83
2017-10-28T03:42:28.612Z,3.42
2017-10-28T03:44:54.575Z,3.20
2017-10-28T03:47:20.772Z,2.55
2017-10-28T03:49:53.713Z,3.00
2017-10-28T03:52:19.668Z,2.85
2017-10-28T03:54:45.649Z,2.70
2017-10-28T03:57:11.663Z,2.90
2017-10-28T03:59:37.633Z,3.10
2017-10-28T04:02:03.765Z,2.85
2017-10-28T04:04:29.721Z,3.15
2017-10-28T04:06:55.704Z,3.00
2017-10-28T04:09:21.677Z,3.10
2017-10-28T04:11:47.632Z,2.90
2017-10-28T04:14:13.600Z,3.15
2017-10-28T04:16:39.606Z,3.07
2017-10-28T04:19:06.312Z,2.83
2017-10-28T04:21:32.269Z,3.53
2017-10-28T04:23:58.296Z,2.70
2017-10-28T04:26:24.261Z,2.63
2017-10-28T04:28:50.242Z,3.10
2017-10-28T04:31:16.340Z,3.30
2017-10-28T04:33:43.098Z,2.90
2017-10-28T04:36:09.087Z,3.27
2017-10-28T04:38:35.830Z,3.70
2017-10-28T04:41:02.549Z,2.87
2017-10-28T04:43:28.522Z,3.55
2017-10-28T04:45:54.494Z,3.10
2017-10-28T04:48:20.454Z,2.90
2017-10-28T04:50:47.183Z,3.30
2017-10-28T04:53:13.913Z,2.93
2017-10-28T04:55:40.636Z,3.03
2017-10-28T04:58:06.618Z,3.10
2017-10-28T05:00:32.613Z,2.80
2017-10-28T05:02:58.564Z,2.80
2017-10-28T05:05:24.572Z,2.70
2017-10-28T05:07:50.547Z,2.97
2017-10-28T05:10:17.251Z,2.90
2017-10-28T05:12:43.245Z,3.00
2017-10-28T05:15:09.294Z,3.30
2017-10-28T05:17:35.252Z,3.30
2017-10-28T05:20:01.966Z,3.55
2017-10-28T05:22:27.948Z,3.00
2017-10-28T05:24:53.904Z,2.55
2017-10-28T05:27:19.904Z,3.03
2017-10-28T05:29:45.895Z,2.90
2017-10-28T05:32:11.845Z,3.40
2017-10-28T05:34:37.840Z,3.33
2017-10-28T05:37:03.788Z,3.00
2017-10-28T05:39:29.744Z,3.80
2017-10-28T05:41:56.481Z,3.30
2017-10-28T05:44:23.178Z,3.20
2017-10-28T05:46:49.144Z,3.70
2017-10-28T05:49:15.881Z,3.30
2017-10-28T05:51:42.581Z,3.40
2017-10-28T05:54:08.535Z,3.45
2017-10-28T05:56:35.281Z,3.30
2017-10-28T05:59:02.008Z,3.22
2017-10-28T06:01:27.952Z,3.20
2017-10-28T06:03:53.974Z,3.05
2017-10-28T06:06:19.924Z,3.10
2017-10-28T06:08:45.878Z,3.37
2017-10-28T06:11:11.861Z,3.40
2017-10-28T06:13:37.825Z,3.80
2017-10-28T06:16:03.853Z,3.40
2017-10-28T06:18:30.789Z,3.20
2017-10-28T06:20:57.481Z,3.45
2017-10-28T06:23:23.449Z,3.80
2017-10-28T06:25:49.408Z,3.53
2017-10-28T06:28:15.366Z,3.12
2017-10-28T06:30:41.328Z,3.63
2017-10-28T06:33:07.828Z,3.37
2017-10-28T06:35:33.786Z,3.42
2017-10-28T06:37:59.753Z,3.40
2017-10-28T06:40:25.744Z,3.22
2017-10-28T06:42:51.705Z,3.25
2017-10-28T06:45:17.671Z,3.90
2017-10-28T06:47:43.966Z,3.75
2017-10-28T06:50:10.901Z,3.85
2017-10-28T06:52:36.872Z,3.28
2017-10-28T06:55:02.827Z,3.58
2017-10-28T06:57:30.316Z,3.67
2017-10-28T06:59:59.215Z,3.37
2017-10-28T07:02:27.275Z,2.83
2017-10-28T07:04:54.361Z,3.97
2017-10-28T07:07:20.334Z,3.40
2017-10-28T07:09:47.049Z,3.40
2017-10-28T07:12:13.056Z,3.20
2017-10-28T07:14:39.008Z,3.35
2017-10-28T07:17:05.033Z,3.45
2017-10-28T07:19:31.777Z,3.77
2017-10-28T07:21:58.489Z,3.00
2017-10-28T07:24:24.469Z,3.40
2017-10-28T07:26:50.446Z,3.50
2017-10-28T07:29:17.169Z,3.70
2017-10-28T07:31:43.125Z,3.30
2017-10-28T07:34:09.852Z,3.90
2017-10-28T07:36:36.552Z,3.35
2017-10-28T07:39:02.508Z,3.00
2017-10-28T07:41:29.273Z,3.30
2017-10-28T07:43:55.329Z,3.30
2017-10-28T07:46:28.645Z,3.60
2017-10-28T07:48:54.609Z,3.80
2017-10-28T07:51:20.588Z,3.50
2017-10-28T07:53:46.711Z,3.40
2017-10-28T07:56:12.656Z,3.50
2017-10-28T07:58:39.356Z,3.40
2017-10-28T08:01:05.704Z,3.80
2017-10-28T08:03:32.429Z,3.50
2017-10-28T08:05:58.397Z,3.58
2017-10-28T08:08:24.345Z,3.53
2017-10-28T08:10:50.315Z,3.58
2017-10-28T08:13:17.128Z,3.53
2017-10-28T08:15:43.102Z,3.80
2017-10-28T08:18:09.061Z,3.60
2017-10-28T08:20:35.052Z,3.30
2017-10-28T08:23:01.005Z,3.70
2017-10-28T08:25:26.958Z,3.42
2017-10-28T08:27:53.973Z,3.75
2017-10-28T08:30:19.935Z,3.37
2017-10-28T08:32:45.902Z,3.80
2017-10-28T08:35:11.888Z,4.30
2017-10-28T08:37:37.859Z,3.58
2017-10-28T08:40:03.813Z,4.40
2017-10-28T08:42:29.787Z,3.65
2017-10-28T08:44:55.732Z,4.07
2017-10-28T08:47:22.453Z,3.60
2017-10-28T08:49:48.457Z,4.00
2017-10-28T08:52:14.424Z,3.40
2017-10-28T08:54:40.385Z,3.50
2017-10-28T08:57:06.373Z,4.60
2017-10-28T08:59:32.337Z,3.67
2017-10-28T09:01:58.292Z,4.28
2017-10-28T09:04:25.009Z,3.80
2017-10-28T09:06:50.981Z,4.07
2017-10-28T09:09:16.941Z,3.50
2017-10-28T09:11:42.929Z,3.90
2017-10-28T09:14:08.886Z,3.73
2017-10-28T09:16:34.853Z,3.58
2017-10-28T09:19:00.825Z,4.10
2017-10-28T09:21:26.783Z,3.80
2017-10-28T09:23:52.724Z,4.10
2017-10-28T09:26:18.716Z,4.10
2017-10-28T09:28:45.397Z,3.78
2017-10-28T09:31:11.369Z,3.60
2017-10-28T09:33:38.105Z,4.07
2017-10-28T09:36:04.965Z,3.50
2017-10-28T09:38:30.939Z,3.90
2017-10-28T09:40:56.903Z,4.05
2017-10-28T09:43:22.862Z,3.78
2017-10-28T09:45:48.817Z,3.50
2017-10-28T09:48:15.564Z,3.72
2017-10-28T09:50:42.271Z,4.33
2017-10-28T09:53:08.229Z,3.20
2017-10-28T09:55:34.456Z,3.33
2017-10-28T09:58:00.424Z,3.90
2017-10-28T10:00:26.421Z,3.92
2017-10-28T10:02:52.382Z,4.72
2017-10-28T10:05:18.336Z,4.05
2017-10-28T10:07:44.301Z,4.30
2017-10-28T10:10:10.560Z,4.10
2017-10-28T10:12:37.265Z,4.50
2017-10-28T10:15:03.276Z,4.10
2017-10-28T10:17:29.232Z,4.30
2017-10-28T10:19:55.352Z,4.30
2017-10-28T10:22:21.319Z,4.75
2017-10-28T10:24:47.284Z,4.00
2017-10-28T10:27:13.280Z,4.40
2017-10-28T10:29:39.242Z,4.40
2017-10-28T10:32:05.931Z,4.22
2017-10-28T10:34:31.906Z,4.43
2017-10-28T10:36:58.639Z,4.30
2017-10-28T10:39:24.645Z,4.62
2017-10-28T10:41:50.589Z,4.80
2017-10-28T10:44:17.284Z,4.40
2017-10-28T10:46:43.284Z,4.37
2017-10-28T10:49:09.244Z,4.87
2017-10-28T10:51:35.193Z,5.40
2017-10-28T10:54:01.933Z,5.32
2017-10-28T10:56:28.628Z,5.00
2017-10-28T10:58:54.573Z,4.90
2017-10-28T11:01:21.608Z,5.15
2017-10-28T11:03:48.312Z,4.55
2017-10-28T11:06:14.293Z,5.30
2017-10-28T11:08:41.009Z,5.10
2017-10-28T11:11:07.768Z,4.97
2017-10-28T11:13:34.478Z,5.40
2017-10-28T11:16:01.466Z,5.35
2017-10-28T11:18:27.464Z,5.40
2017-10-28T11:20:54.160Z,5.43
2017-10-28T11:23:20.620Z,5.25
2017-10-28T11:25:46.609Z,5.43
2017-10-28T11:28:12.568Z,5.12
2017-10-28T11:30:39.274Z,5.68
2017-10-28T11:33:05.521Z,5.50
2017-10-28T11:35:32.237Z,5.50
2017-10-28T11:37:58.204Z,5.97
2017-10-28T11:40:24.195Z,5.32
2017-10-28T11:42:50.173Z,5.68
2017-10-28T11:45:16.137Z,5.47
2017-10-28T11:47:42.105Z,5.65
2017-10-28T11:50:08.085Z,6.07
2017-10-28T11:52:34.801Z,5.60
2017-10-28T11:55:00.773Z,5.55
2017-10-28T11:57:26.729Z,5.45
2017-10-28T11:59:52.701Z,5.07
2017-10-28T12:02:18.689Z,6.22
2017-10-28T12:04:44.650Z,6.05
2017-10-28T12:07:10.600Z,5.60
2017-10-28T12:09:36.861Z,6.57
2017-10-28T12:12:02.833Z,20.50
2017-10-28T12:14:28.794Z,15.70
2017-10-28T12:16:54.805Z,18.40
2017-10-28T12:19:20.856Z,25.33
2017-10-28T12:21:47.544Z,12.45
2017-10-28T12:24:13.497Z,5.55
2017-10-28T12:26:39.449Z,6.05
2017-10-28T12:29:05.412Z,5.80
2017-10-28T12:31:31.364Z,5.53
2017-10-28T12:33:57.312Z,5.90
2017-10-28T12:36:23.489Z,5.85
2017-10-28T12:38:49.458Z,5.07
2017-10-28T12:41:15.434Z,6.30
2017-10-28T12:43:41.389Z,5.77
2017-10-28T12:46:07.364Z,6.30
2017-10-28T12:48:33.352Z,5.80
2017-10-28T12:50:59.481Z,6.00
2017-10-28T12:53:25.450Z,5.62
2017-10-28T12:55:51.409Z,5.70
2017-10-28T12:58:17.385Z,5.40
2017-10-28T13:00:43.347Z,6.13
2017-10-28T13:03:09.320Z,5.93
2017-10-28T13:05:35.457Z,6.20
2017-10-28T13:08:02.202Z,5.93
2017-10-28T13:10:28.900Z,6.27
2017-10-28T13:12:54.905Z,6.00
2017-10-28T13:15:27.920Z,5.78
2017-10-28T13:17:53.915Z,6.15
2017-10-28T13:20:19.857Z,5.80
2017-10-28T13:22:45.833Z,5.40
2017-10-28T13:25:12.125Z,6.10
2017-10-28T13:27:38.841Z,6.18
2017-10-28T13:30:04.792Z,6.83
2017-10-28T13:32:31.821Z,7.20
2017-10-28T13:34:57.781Z,5.55
2017-10-28T13:37:23.749Z,6.68
2017-10-28T13:39:49.997Z,6.65
2017-10-28T13:42:16.713Z,5.87
2017-10-28T13:44:42.686Z,6.43
2017-10-28T13:47:09.580Z,7.10
2017-10-28T13:49:35.544Z,6.70
2017-10-28T13:52:24.153Z,6.30
2017-10-28T13:54:50.115Z,6.10
2017-10-28T13:57:16.084Z,6.07
2017-10-28T13:59:42.045Z,5.97
2017-10-28T14:02:08.049Z,6.00
2017-10-28T14:04:34.756Z,6.20
2017-10-28T14:07:00.733Z,5.85
2017-10-28T14:09:26.813Z,6.05
2017-10-28T14:11:52.784Z,6.50
2017-10-28T14:14:18.756Z,6.40
2017-10-28T14:16:44.754Z,6.10
2017-10-28T14:19:10.725Z,27.35
2017-10-28T14:21:37.422Z,21.83
2017-10-28T14:24:03.609Z,6.25
2017-10-28T14:26:29.580Z,7.95
2017-10-28T14:28:55.549Z,6.40
2017-10-28T14:31:21.540Z,6.55
2017-10-28T14:33:48.244Z,7.45
2017-10-28T14:36:14.210Z,6.53
2017-10-28T14:38:40.197Z,6.78
2017-10-28T14:41:06.164Z,6.40
2017-10-28T14:43:32.137Z,6.10
2017-10-28T14:45:58.573Z,6.18
2017-10-28T14:48:24.529Z,6.50
2017-10-28T14:50:50.485Z,6.30
2017-10-28T14:53:16.453Z,5.90
2017-10-28T14:55:43.157Z,6.25
2017-10-28T14:58:09.165Z,5.73
2017-10-28T15:00:35.169Z,6.50
2017-10-28T15:03:01.161Z,6.53
2017-10-28T15:05:27.125Z,6.18
2017-10-28T15:07:53.121Z,5.37
2017-10-28T15:10:19.094Z,6.00
2017-10-28T15:12:45.052Z,7.00
2017-10-28T15:15:11.338Z,6.43
2017-10-28T15:17:37.315Z,4.90
2017-10-28T15:20:03.280Z,5.70
2017-10-28T15:22:29.402Z,6.18
2017-10-28T15:24:55.364Z,5.28
2017-10-28T15:27:21.321Z,5.57
2017-10-28T15:29:47.288Z,5.40
2017-10-28T15:32:13.253Z,5.37
2017-10-28T15:34:39.225Z,5.65
2017-10-28T15:37:05.970Z,5.62
2017-10-28T15:39:31.925Z,5.13
2017-10-28T15:41:57.892Z,5.30
2017-10-28T15:44:24.617Z,4.72
2017-10-28T15:46:50.576Z,4.80
2017-10-28T15:49:16.537Z,4.70
2017-10-28T15:51:42.553Z,4.93
2017-10-28T15:54:08.533Z,5.00
2017-10-28T15:56:34.492Z,4.90
2017-10-28T15:59:00.578Z,5.10
2017-10-28T16:01:26.538Z,3.80
2017-10-28T16:03:52.488Z,5.00
2017-10-28T16:06:19.211Z,4.10
2017-10-28T16:08:45.178Z,4.28
2017-10-28T16:11:11.150Z,4.07
2017-10-28T16:13:37.117Z,3.72
2017-10-28T16:16:03.101Z,4.30
2017-10-28T16:18:29.093Z,4.87
2017-10-28T16:20:55.074Z,4.82
2017-10-28T16:23:21.073Z,5.57
2017-10-28T16:25:47.784Z,4.55
2017-10-28T16:28:13.747Z,5.87
2017-10-28T16:30:39.717Z,4.80
2017-10-28T16:33:05.705Z,4.73
2017-10-28T16:35:31.688Z,4.35
2017-10-28T16:37:58.383Z,3.90
2017-10-28T16:40:24.419Z,4.43
2017-10-28T16:42:50.372Z,3.72
2017-10-28T16:45:17.115Z,3.60
2017-10-28T16:47:43.850Z,3.50
2017-10-28T16:50:10.563Z,3.57
2017-10-28T16:52:36.539Z,3.42
2017-10-28T16:55:02.829Z,3.10
2017-10-28T16:57:29.561Z,3.50
2017-10-28T16:59:55.529Z,3.27
2017-10-28T17:02:21.516Z,2.87
2017-10-28T17:04:47.501Z,3.50
2017-10-28T17:07:13.471Z,3.10
2017-10-28T17:09:39.447Z,2.80
2017-10-28T17:12:05.500Z,3.08
2017-10-28T17:14:32.204Z,3.10
2017-10-28T17:16:58.441Z,3.30
2017-10-28T17:19:24.417Z,3.00
2017-10-28T17:21:50.373Z,2.70
2017-10-28T17:24:16.588Z,2.87
2017-10-28T17:26:42.545Z,2.97
2017-10-28T17:29:09.253Z,2.90
2017-10-28T17:31:35.239Z,3.30
2017-10-28T17:34:01.205Z,3.65
2017-10-28T17:36:27.179Z,3.08
2017-10-28T17:38:53.190Z,3.50
2017-10-28T17:41:19.143Z,3.10
2017-10-28T17:43:45.106Z,3.20
2017-10-28T17:46:11.826Z,2.83
2017-10-28T17:48:37.780Z,2.87
2017-10-28T17:51:03.744Z,2.70
2017-10-28T17:53:36.861Z,2.20
2017-10-28T17:56:03.569Z,2.97
2017-10-28T17:58:29.549Z,2.30
2017-10-28T18:00:55.741Z,2.50
2017-10-28T18:03:23.129Z,2.20
2017-10-28T18:05:49.970Z,2.60
2017-10-28T18:08:18.202Z,2.20
2017-10-28T18:10:45.128Z,2.78
2017-10-28T18:13:20.370Z,2.20
2017-10-28T18:15:53.910Z,2.17
2017-10-28T18:18:19.905Z,2.12
2017-10-28T18:20:46.624Z,2.10
2017-10-28T18:23:12.600Z,2.40
2017-10-28T18:25:38.567Z,1.90
2017-10-28T18:28:04.535Z,2.10
2017-10-28T18:30:30.497Z,1.80
2017-10-28T18:32:56.473Z,2.30
2017-10-28T18:35:22.469Z,2.30
2017-10-28T18:37:49.200Z,1.83
2017-10-28T18:40:15.949Z,1.90
2017-10-28T18:42:42.873Z,1.90
2017-10-28T18:45:09.580Z,1.80
2017-10-28T18:47:35.549Z,1.67
2017-10-28T18:50:02.255Z,1.80
2017-10-28T18:52:28.257Z,1.70
2017-10-28T18:54:54.229Z,1.90
2017-10-28T18:57:20.940Z,1.80
2017-10-28T18:59:46.909Z,1.80
2017-10-28T19:02:15.861Z,2.10
2017-10-28T19:04:43.248Z,2.30
2017-10-28T19:07:09.267Z,2.10
2017-10-28T19:09:35.513Z,2.40
2017-10-28T19:12:01.487Z,2.65
2017-10-28T19:14:28.225Z,2.50
2017-10-28T19:16:54.945Z,2.30
2017-10-28T19:19:20.926Z,2.67
2017-10-28T19:21:46.898Z,3.00
2017-10-28T19:24:12.873Z,2.30
2017-10-28T19:26:38.833Z,2.27
2017-10-28T19:29:04.841Z,2.50
2017-10-28T19:31:30.805Z,2.43
2017-10-28T19:33:56.769Z,2.90
2017-10-28T19:36:23.042Z,2.80
2017-10-28T19:38:49.762Z,2.90
2017-10-28T19:41:15.792Z,2.42
2017-10-28T19:43:42.518Z,2.60
2017-10-28T19:46:08.474Z,2.60
2017-10-28T19:48:34.478Z,2.40
2017-10-28T19:51:01.304Z,2.70
2017-10-28T19:53:27.288Z,2.97
2017-10-28T19:55:53.276Z,2.60
2017-10-28T19:58:19.298Z,2.90
2017-10-28T20:00:45.285Z,2.70
2017-10-28T20:03:11.265Z,2.90
2017-10-28T20:05:37.273Z,2.75
2017-10-28T20:08:03.325Z,2.70
2017-10-28T20:10:29.376Z,2.60
2017-10-28T20:12:56.084Z,2.90
2017-10-28T20:15:22.063Z,2.60
2017-10-28T20:17:51.839Z,2.70
2017-10-28T20:20:18.649Z,2.90
2017-10-28T20:22:44.618Z,2.70
2017-10-28T20:25:11.660Z,2.85
2017-10-28T20:27:38.362Z,2.87
2017-10-28T20:30:04.326Z,2.87
2017-10-28T20:32:30.349Z,3.20
2017-10-28T20:34:56.329Z,3.17
2017-10-28T20:37:26.820Z,3.65
2017-10-28T20:39:52.820Z,3.30
2017-10-28T20:42:18.796Z,4.00
2017-10-28T20:44:44.760Z,3.53
2017-10-28T20:47:10.786Z,4.07
2017-10-28T20:49:38.514Z,4.20
2017-10-28T20:52:04.623Z,4.68
2017-10-28T20:54:30.861Z,4.17
2017-10-28T20:56:57.736Z,4.05
2017-10-28T20:59:23.694Z,3.90
2017-10-28T21:01:50.084Z,4.00
2017-10-28T21:04:16.057Z,3.55
2017-10-28T21:06:42.019Z,3.50
2017-10-28T21:09:08.022Z,3.83
2017-10-28T21:11:34.783Z,4.00
2017-10-28T21:14:00.789Z,3.87
2017-10-28T21:16:27.521Z,3.57
2017-10-28T21:18:54.339Z,3.60
2017-10-28T21:21:20.327Z,4.00
2017-10-28T21:23:46.341Z,3.62
2017-10-28T21:26:12.304Z,4.05
2017-10-28T21:28:38.362Z,4.00
2017-10-28T21:31:04.364Z,4.30
2017-10-28T21:33:31.100Z,4.60
2017-10-28T21:35:57.808Z,4.50
2017-10-28T21:38:23.787Z,4.70
2017-10-28T21:40:49.759Z,4.12
2017-10-28T21:43:15.882Z,4.80
2017-10-28T21:45:41.958Z,4.55
2017-10-28T21:48:07.958Z,5.10
2017-10-28T21:50:34.661Z,4.57
2017-10-28T21:53:00.729Z,4.72
2017-10-28T21:55:26.687Z,5.00
2017-10-28T21:57:52.666Z,5.30
2017-10-28T22:00:18.714Z,4.90
2017-10-28T22:02:44.698Z,5.00
2017-10-28T22:05:11.440Z,4.87
2017-10-28T22:07:37.835Z,4.60
2017-10-28T22:10:03.802Z,5.10
2017-10-28T22:12:29.788Z,4.70
2017-10-28T22:14:55.842Z,4.78
2017-10-28T22:17:21.794Z,4.53
2017-10-28T22:19:47.793Z,4.28
2017-10-28T22:22:13.765Z,4.40
2017-10-28T22:24:39.737Z,4.15
2017-10-28T22:27:05.731Z,4.90
2017-10-28T22:29:31.708Z,4.80
2017-10-28T22:31:57.678Z,4.80
2017-10-28T22:34:23.685Z,4.68
2017-10-28T22:36:49.657Z,5.37
2017-10-28T22:39:15.639Z,4.35
2017-10-28T22:41:41.642Z,5.20
2017-10-28T22:44:08.371Z,5.25
2017-10-28T22:46:34.352Z,7.30
2017-10-28T22:49:00.507Z,6.00
2017-10-28T22:51:26.514Z,14.87
2017-10-28T22:53:52.538Z,6.57
2017-10-28T22:56:18.506Z,11.18
2017-10-28T22:58:44.814Z,9.60
2017-10-28T23:01:11.506Z,16.80
2017-10-28T23:03:37.508Z,4.90
2017-10-28T23:06:03.538Z,5.07
2017-10-28T23:08:29.521Z,5.90
2017-10-28T23:10:56.251Z,5.55
2017-10-28T23:13:22.995Z,5.47
2017-10-28T23:15:49.828Z,4.43
2017-10-28T23:18:16.567Z,3.83
2017-10-28T23:20:43.306Z,4.80
2017-10-28T23:23:10.010Z,4.15
2017-10-28T23:25:35.995Z,4.30
2017-10-28T23:28:01.990Z,4.60
2017-10-28T23:30:28.709Z,4.37
2017-10-28T23:32:55.038Z,4.37
2017-10-28T23:35:21.029Z,4.40
2017-10-28T23:37:47.760Z,4.65
2017-10-28T23:40:13.757Z,5.00
2017-10-28T23:42:39.725Z,4.60
2017-10-28T23:45:05.715Z,5.50
2017-10-28T23:47:31.715Z,4.17
2017-10-28T23:49:57.680Z,4.68
2017-10-28T23:52:23.659Z,5.00
2017-10-28T23:54:49.652Z,4.75
2017-10-28T23:57:16.353Z,4.28
2017-10-28T23:59:42.649Z,4.97
